WetterOnline ( https://www.wetteronline.de )

Wetter aktuell Klein Welzin

Aktuelles Wetter: Schwerin (68m)

6-stündlich | Neueste Meldungen
Ortszeit Temperatur Wetter
Fr, 20.09. 2:00 8.6° C wolkig
Do, 19.09. 20:00 12.0° C bewölkt
Do, 19.09. 14:00 14.5° C wolkig
Do, 19.09. 8:00 7.9° C leicht bewölkt
Do, 19.09. 2:00 9.3° C wolkenlos
Mi, 18.09. 20:00 10.7° C bewölkt
Mi, 18.09. 14:00 14.8° C leicht bewölkt
Mi, 18.09. 8:00 9.6° C leicht bewölkt
Ortszeit Temperatur Wetter
Fr, 20.09. 2:30 8.6° C bewölkt
Fr, 20.09. 2:20 8.6° C bewölkt
Fr, 20.09. 2:10 8.6° C bewölkt
Fr, 20.09. 2:00 8.6° C wolkig
Fr, 20.09. 1:40 8.7° C wolkig
Fr, 20.09. 1:30 9.2° C wolkig
Fr, 20.09. 1:00 9.4° C bedeckt
Fr, 20.09. 0:30 9.3° C bewölkt
Fr, 20.09. 0:00 9.3° C wolkig
Do, 19.09. 23:30 9.6° C wolkig
Ortszeit Relative Feuchte Sichtweite
Fr, 20.09. 2:00 85% 45 km
Do, 19.09. 20:00 61% 55 km
Do, 19.09. 14:00 55% 65 km
Do, 19.09. 8:00 90% 40 km
Do, 19.09. 2:00 80% 40 km
Mi, 18.09. 20:00 74% 55 km
Mi, 18.09. 14:00 46% 55 km
Mi, 18.09. 8:00 79% 27 km
Ortszeit Relative Feuchte Sichtweite
Fr, 20.09. 2:30 85% 45 km
Fr, 20.09. 2:20 85% -
Fr, 20.09. 2:10 85% -
Fr, 20.09. 2:00 85% 45 km
Fr, 20.09. 1:40 85% -
Fr, 20.09. 1:30 81% 45 km
Fr, 20.09. 1:00 79% 60 km
Fr, 20.09. 0:30 80% 45 km
Fr, 20.09. 0:00 80% 50 km
Do, 19.09. 23:30 79% 45 km
Ortszeit Niederschlagsmenge Niederschlagsart
Fr, 20.09. 2:00 0.0 l/m2 in 6 Std. -
Do, 19.09. 20:00 0.0 l/m2 in 12 Std. -
Do, 19.09. 14:00 0.0 l/m2 in 6 Std. -
Do, 19.09. 8:00 0.1 l/m2 in 12 Std. -
Do, 19.09. 2:00 0.1 l/m2 in 6 Std. Regen
Mi, 18.09. 20:00 0.4 l/m2 in 12 Std. Regen
Mi, 18.09. 14:00 0.0 l/m2 in 6 Std. -
Mi, 18.09. 8:00 0.0 l/m2 in 12 Std. -
Ortszeit Niederschlagsmenge Niederschlagsart
Fr, 20.09. 2:30 0.0 l/m2 in 1 Std. -
Fr, 20.09. 2:20 keine Meldung -
Fr, 20.09. 2:10 keine Meldung -
Fr, 20.09. 2:00 0.0 l/m2 in 1 Std. -
Fr, 20.09. 1:40 keine Meldung -
Fr, 20.09. 1:30 0.0 l/m2 in 1 Std. -
Fr, 20.09. 1:00 0.0 l/m2 in 1 Std. -
Fr, 20.09. 0:30 0.0 l/m2 in 1 Std. -
Fr, 20.09. 0:00 0.0 l/m2 in 1 Std. -
Do, 19.09. 23:30 0.0 l/m2 in 1 Std. -
Ortszeit Stärke Spitze Richtung
km/h Bft. km/h Grad Sektor
Fr, 20.09. 2:00 9 2 19 270° W
Do, 19.09. 20:00 7 2 25 300° NW
Do, 19.09. 14:00 15 3 28 280° W
Do, 19.09. 8:00 11 2 32 280° W
Do, 19.09. 2:00 18 3 29 280° W
Mi, 18.09. 20:00 15 3 50 290° W
Mi, 18.09. 14:00 22 4 46 280° W
Mi, 18.09. 8:00 18 3 32 280° W
Ortszeit Stärke Spitze Richtung
km/h Bft. km/h Grad Sektor
Fr, 20.09. 2:30 9 2 19 270° W
Fr, 20.09. 2:20 9 2 - 270° W
Fr, 20.09. 2:10 11 2 - 270° W
Fr, 20.09. 2:00 9 2 15 270° W
Fr, 20.09. 1:40 9 2 - 270° W
Fr, 20.09. 1:30 11 2 14 270° W
Fr, 20.09. 1:00 9 2 17 280° W
Fr, 20.09. 0:30 11 2 14 270° W
Fr, 20.09. 0:00 11 2 18 270° W
Do, 19.09. 23:30 11 2 14 280° W
Ortszeit Untergrenze Bedeckung Gattung
total tief tief mittel hoch
Fr, 20.09. 2:00 10500 m 8/8 0/8 - - -
Do, 19.09. 20:00 5700 m 8/8 6/8 - - -
Do, 19.09. 14:00 1110 m 8/8 2/8 - - -
Do, 19.09. 8:00 9000 m 3/8 0/8 - - -
Do, 19.09. 2:00 - 0/8 0/8 - - -
Mi, 18.09. 20:00 1500 m 7/8 7/8 - - -
Mi, 18.09. 14:00 1500 m 4/8 4/8 - - -
Mi, 18.09. 8:00 1380 m 4/8 4/8 - - -
Ortszeit Bedeckungsgrad in Achtel und Wolkenuntergrenze
Fr, 20.09. 2:30 4(6900m) 8(10500m) 8(12000m)
Fr, 20.09. 2:20 4(6900m) 8(10500m) 8(12000m)
Fr, 20.09. 2:10 4(6900m) 8(10500m) 8(12000m)
Fr, 20.09. 2:00 6(10500m) 8(10500m) 8(12000m)
Fr, 20.09. 1:40 1(7500m) 8(10500m) 8(12000m)
Fr, 20.09. 1:30 1(3300m) 8(9000m) 8(12000m)
Fr, 20.09. 1:00 8(3600m) 8(7800m) 8(9000m)
Fr, 20.09. 0:30 5(3600m) 8(8700m) 8(9000m)
Fr, 20.09. 0:00 6(9000m) 8(10500m) 8(12000m)
Do, 19.09. 23:30 2(9000m) 8(10500m) 8(12000m)
Ortszeit Luftdruck NN (hPa) Tendenz (hPa in 3 Std.)
Fr, 20.09. 2:00 1029 - 0,4
Do, 19.09. 20:00 1028 + 0,3
Do, 19.09. 14:00 1029 + 1,1
Do, 19.09. 8:00 1026 + 1,2
Do, 19.09. 2:00 1025 + 0,5
Mi, 18.09. 20:00 1023 + 0,6
Mi, 18.09. 14:00 1022 + 0,3
Mi, 18.09. 8:00 1021 + 1,5
Ortszeit Luftdruck NN (hPa) Tendenz (hPa in 3 Std.)
Fr, 20.09. 2:30 1029 - 0,3
Fr, 20.09. 2:20 1029 keine Meldung
Fr, 20.09. 2:10 1029 keine Meldung
Fr, 20.09. 2:00 1029 - 0,4
Fr, 20.09. 1:40 1029 keine Meldung
Fr, 20.09. 1:30 1029 - 0,2
Fr, 20.09. 1:00 1029 - 0,1
Fr, 20.09. 0:30 1029 + 0,3
Fr, 20.09. 0:00 1029 + 0,7
Do, 19.09. 23:30 1029 + 0,8
Ortszeit Schneehöhe (cm)
Fr, 20.09. 2:00 -
Do, 19.09. 20:00 -
Do, 19.09. 14:00 -
Do, 19.09. 8:00 -
Do, 19.09. 2:00 -
Mi, 18.09. 20:00 -
Mi, 18.09. 14:00 -
Mi, 18.09. 8:00 -
Ortszeit Schneehöhe (cm)
Fr, 20.09. 2:30 -
Fr, 20.09. 2:20 -
Fr, 20.09. 2:10 -
Fr, 20.09. 2:00 -
Fr, 20.09. 1:40 -
Fr, 20.09. 1:30 -
Fr, 20.09. 1:00 -
Fr, 20.09. 0:30 -
Fr, 20.09. 0:00 -
Do, 19.09. 23:30 -
Link zu dieser Seite / Seite empfehlen

Das Wetter in ...